Flight Track Log - Related Links

Times and Time Zones

All times are in EDT time to prevent confusion due to time zone crossing. See the RPA3228 flight status page for this flight to view local times or setup timezone preferences in your user account.

Time Position Orientation Groundspeed Altitude Reporting Facility
EDT Latitude Longitude Course Direction KTS MPH feet Rate Location/Type
Wed 07:46:11 AM 36.1000 -86.6833 56° Northeast 141 162 1,400  Level Nashville TRACON
Wed 07:47:05 AM 36.0667 -86.6500 141° Southeast 198 228 3,200 2,158 Climbing Nashville TRACON
Wed 07:48:00 AM 36.2554 -86.2847 64° Northeast  Level Estimated
Wed 07:48:05 AM 36.0667 -86.5833 90° East 285 328 5,500  Level Nashville TRACON
Wed 07:48:51 AM 36.0800 -86.5100 77° East 301 346 7,900 2,887 Climbing Memphis Center
Wed 07:49:00 AM 36.2987 -86.1532 68° East  Level Estimated
Wed 07:49:51 AM 36.1064 -86.4136 71° East 311 358 10,600  Level Memphis Center
Wed 07:50:00 AM 36.3419 -86.0216 50° Northeast  Level Estimated
Wed 07:50:51 AM 36.1342 -86.3094 72° East 313 360 12,400  Level Memphis Center
Wed 07:51:00 AM 36.3850 -85.8898 56° Northeast  Level Estimated
Wed 07:51:51 AM 36.1658 -86.1972 71° East 327 376 14,700  Level Memphis Center
Wed 07:52:51 AM 36.1975 -86.0825 71° East 338 389 16,700 2,000 Climbing Memphis Center
Wed 07:53:51 AM 36.2456 -85.9694 62° Northeast 349 402 18,700 1,950 Climbing Memphis Center
Wed 07:54:51 AM 36.2900 -85.8692 61° Northeast 369 425 20,600 2,000 Climbing Memphis Center
Wed 07:55:21 AM 36.3164 -85.8094 61° Northeast 383 441 21,700 2,022 Climbing Indianapolis Center
Wed 07:56:23 AM 36.3739 -85.6908 59° Northeast 396 456 23,700 1,805 Climbing Indianapolis Center
Wed 07:57:24 AM 36.4328 -85.5672 59° Northeast 411 473 25,400 1,707 Climbing Indianapolis Center
Wed 07:58:26 AM 36.4936 -85.4389 59° Northeast 424 488 27,200 1,694 Climbing Indianapolis Center
Wed 07:59:28 AM 36.5661 -85.2831 60° Northeast 433 498 28,900 1,463 Climbing Indianapolis Center
Wed 08:00:29 AM 36.6258 -85.1461 61° Northeast 445 512 30,200 1,024 Climbing Indianapolis Center
Wed 08:01:31 AM 36.6703 -84.9978 69° East 452 520 31,000 387 Climbing Indianapolis Center
Wed 08:02:33 AM 36.7164 -84.8483 69° East 459 528 31,000  Level Indianapolis Center
Wed 08:03:34 AM 36.7614 -84.6983 69° East 460 529 31,000  Level Indianapolis Center
Wed 08:04:36 AM 36.8067 -84.5494 69° East 459 528 31,000  Level Indianapolis Center
Wed 08:05:38 AM 36.8564 -84.3872 69° East 450 518 31,000  Level Indianapolis Center
Wed 08:06:39 AM 36.9006 -84.2383 70° East 454 522 31,000  Level Indianapolis Center
Wed 08:07:41 AM 36.9444 -84.0900 70° East 454 522 31,000  Level Indianapolis Center
Wed 08:08:43 AM 36.9886 -83.9442 69° East 448 516 31,000  Level Indianapolis Center
Wed 08:09:44 AM 37.0319 -83.7983 70° East 445 512 31,000  Level Indianapolis Center
Wed 08:10:46 AM 37.0725 -83.6628 69° East 419 482 31,000  Level Indianapolis Center
Wed 08:11:48 AM 37.1125 -83.5244 70° East 421 484 31,000  Level Indianapolis Center
Wed 08:12:49 AM 37.1594 -83.3636 70° East 420 483 31,000  Level Indianapolis Center
Wed 08:13:51 AM 37.1986 -83.2247 70° East 420 483 31,000  Level Indianapolis Center
Wed 08:14:53 AM 37.2392 -83.0864 70° East 419 482 31,000  Level Indianapolis Center
Wed 08:15:55 AM 37.2828 -82.9494 68° East 419 482 31,000  Level Indianapolis Center
Wed 08:16:56 AM 37.3325 -82.8153 65° Northeast 420 483 31,000  Level Indianapolis Center
Wed 08:17:58 AM 37.3811 -82.6822 65° Northeast 416 479 31,000  Level Indianapolis Center
Wed 08:19:00 AM 37.4253 -82.5467 68° East 418 481 31,000  Level Indianapolis Center
Wed 08:20:01 AM 37.4594 -82.4053 73° East 419 482 31,000  Level Indianapolis Center
Wed 08:21:03 AM 37.4958 -82.2653 72° East 419 482 31,000  Level Indianapolis Center
Wed 08:22:05 AM 37.5375 -82.1028 72° East 419 482 31,000  Level Indianapolis Center
Wed 08:23:06 AM 37.5728 -81.9631 72° East 417 480 31,000  Level Indianapolis Center
Wed 08:24:08 AM 37.6081 -81.8242 72° East 416 479 31,000  Level Indianapolis Center
Wed 08:25:10 AM 37.6422 -81.6844 73° East 416 479 31,000  Level Indianapolis Center
Wed 08:26:11 AM 37.6778 -81.5456 72° East 416 479 31,000  Level Indianapolis Center
Wed 08:27:13 AM 37.7158 -81.3911 73° East 419 482 31,000  Level Indianapolis Center
Wed 08:28:15 AM 37.7497 -81.2542 73° East 418 481 31,000  Level Indianapolis Center
Wed 08:29:16 AM 37.7842 -81.1169 72° East 422 486 31,000  Level Indianapolis Center
Wed 08:30:18 AM 37.8331 -80.9783 66° East 418 481 31,000  Level Indianapolis Center
Wed 08:31:20 AM 37.8797 -80.8450 66° East 417 480 31,000  Level Indianapolis Center
Wed 08:32:21 AM 37.9269 -80.7117 66° East 416 479 31,000  Level Indianapolis Center
Wed 08:33:07 AM 37.9686 -80.5967 65° Northeast 412 474 31,000  Level Washington Center
Wed 08:34:06 AM 38.0158 -80.4653 65° Northeast 407 468 31,000  Level Washington Center
Wed 08:35:06 AM 38.0606 -80.3417 65° Northeast 407 468 31,000  Level Washington Center
Wed 08:36:05 AM 38.1075 -80.2075 66° East 407 468 31,000  Level Washington Center
Wed 08:37:06 AM 38.1542 -80.0756 66° East 407 468 31,000  Level Washington Center
Wed 08:38:06 AM 38.2008 -79.9411 66° East 407 468 31,000  Level Washington Center
Wed 08:39:07 AM 38.2517 -79.8039 65° Northeast 407 468 31,000  Level Washington Center
Wed 08:40:08 AM 38.3025 -79.6558 66° East 412 474 31,000  Level Washington Center
Wed 08:41:06 AM 38.3486 -79.5233 66° East 412 474 31,000  Level Washington Center
Wed 08:42:06 AM 38.3947 -79.3881 66° East 412 474 31,000 -595 Level Washington Center
Wed 08:43:07 AM 38.4347 -79.2469 70° East 412 474 29,800 -1,672 Descending Washington Center
Wed 08:44:08 AM 38.4619 -79.1025 76° East 412 474 27,600 -1,412 Descending Washington Center
Wed 08:45:06 AM 38.4844 -78.9656 78° East 423 487 27,000 -1,210 Descending Washington Center
Wed 08:46:07 AM 38.5100 -78.7969 79° East 429 494 25,200 -2,016 Descending Washington Center
Wed 08:47:08 AM 38.5306 -78.6492 80° East 429 494 22,900 -1,714 Descending Washington Center
Wed 08:48:06 AM 38.5550 -78.5067 78° East 424 488 21,800 -1,119 Descending Washington Center
Wed 08:49:06 AM 38.5769 -78.3669 79° East 424 488 20,700 -1,500 Descending Washington Center
Wed 08:50:06 AM 38.6053 -78.2272 75° East 407 468 18,800 -1,686 Descending Washington Center
Wed 08:51:07 AM 38.6433 -78.1061 68° East 382 440 17,300 -1,686 Descending Washington Center
Wed 08:52:07 AM 38.6811 -77.9878 68° East 367 422 15,400 -1,785 Descending Washington Center
Wed 08:53:08 AM 38.7167 -77.8772 68° East 347 399 13,700 -1,537 Descending Washington Center
Wed 08:54:08 AM 38.7622 -77.7828 58° Northeast 324 373 12,300 -1,322 Descending Washington Center
Wed 08:55:06 AM 38.8178 -77.7019 49° Northeast 311 358 11,100 -1,169 Descending Washington Center
Wed 08:56:06 AM 38.8483 -77.6147 66° East 298 343 10,000 -1,140 Descending Washington Center
Wed 08:57:07 AM 38.8875 -77.5144 63° Northeast 284 327 8,800 -1,041 Descending Washington Center
Wed 08:58:07 AM 38.9056 -77.4375 73° East 255 293 7,900 -1,024 Descending Washington Center
Wed 08:59:10 AM 38.8667 -77.3500 120° Southeast 231 266 6,700 -927 Descending Potomac TRACON
Wed 09:00:10 AM 38.8333 -77.2833 123° Southeast 227 261 6,000 -365 Descending Potomac TRACON
Wed 09:01:05 AM 38.8167 -77.2167 108° East 223 257 6,000  Level Potomac TRACON
Wed 09:02:05 AM 38.7833 -77.1500 123° Southeast 207 238 6,000 -50 Level Potomac TRACON
Wed 09:03:05 AM 38.7500 -77.1167 142° Southeast 211 243 5,900 -730 Descending Potomac TRACON
Wed 09:04:00 AM 38.6833 -77.1000 169° South 205 236 4,600 -1,000 Descending Potomac TRACON
Wed 09:04:59 AM 38.6333 -77.1000 180° South 199 229 4,000 -316 Descending Potomac TRACON
Wed 09:05:54 AM 38.6333 -77.0500 90° East 186 214 4,000 -157 Level Potomac TRACON
Wed 09:06:54 AM 38.6667 -77.0167 38° Northeast 184 212 3,700 -650 Descending Potomac TRACON
Wed 09:07:54 AM 38.7167 -77.0167 360° North 178 205 2,700 -1,000 Descending Potomac TRACON
Wed 09:08:54 AM 38.7500 -77.0333 339° North 175 201 1,700 -850 Descending Potomac TRACON
Wed 09:09:54 AM 38.8000 -77.0333 360° North 146 168 1,000 -700 Descending Potomac TRACON

Login

Don't have an account? Register now (free) for customized features, flight alerts, and more!